sensor_id;sensor_type;location;lat;lon;timestamp;temperature;humidity
52609;DHT22;38503;48.544;12.142;2022-12-05T00:01:20;3.00;99.90
52609;DHT22;38503;48.544;12.142;2022-12-05T00:03:49;2.70;99.90
52609;DHT22;38503;48.544;12.142;2022-12-05T00:06:17;2.70;99.90
52609;DHT22;38503;48.544;12.142;2022-12-05T00:08:45;2.60;99.90
52609;DHT22;38503;48.544;12.142;2022-12-05T00:11:14;2.70;99.90
52609;DHT22;38503;48.544;12.142;2022-12-05T00:13:41;2.60;99.90
52609;DHT22;38503;48.544;12.142;2022-12-05T00:16:13;2.70;99.90
52609;DHT22;38503;48.544;12.142;2022-12-05T00:18:41;2.70;99.90
52609;DHT22;38503;48.544;12.142;2022-12-05T00:21:13;2.70;99.90
52609;DHT22;38503;48.544;12.142;2022-12-05T00:23:41;2.70;99.90
52609;DHT22;38503;48.544;12.142;2022-12-05T00:26:09;2.70;99.90
52609;DHT22;38503;48.544;12.142;2022-12-05T00:28:36;2.70;99.90
52609;DHT22;38503;48.544;12.142;2022-12-05T00:31:15;2.70;99.90
52609;DHT22;38503;48.544;12.142;2022-12-05T00:33:43;2.60;99.90
52609;DHT22;38503;48.544;12.142;2022-12-05T00:36:19;2.60;99.90
52609;DHT22;38503;48.544;12.142;2022-12-05T00:38:46;2.60;99.90
52609;DHT22;38503;48.544;12.142;2022-12-05T00:41:24;2.60;99.90
52609;DHT22;38503;48.544;12.142;2022-12-05T00:43:52;2.60;99.90
52609;DHT22;38503;48.544;12.142;2022-12-05T00:46:23;2.50;99.90
52609;DHT22;38503;48.544;12.142;2022-12-05T00:48:55;2.50;99.90
52609;DHT22;38503;48.544;12.142;2022-12-05T00:51:27;2.50;99.90
52609;DHT22;38503;48.544;12.142;2022-12-05T00:53:57;2.50;99.90
52609;DHT22;38503;48.544;12.142;2022-12-05T00:56:26;2.50;99.90
52609;DHT22;38503;48.544;12.142;2022-12-05T00:58:54;2.40;99.90
52609;DHT22;38503;48.544;12.142;2022-12-05T01:01:40;2.50;99.90
52609;DHT22;38503;48.544;12.142;2022-12-05T01:04:11;2.50;99.90
52609;DHT22;38503;48.544;12.142;2022-12-05T01:06:39;2.50;99.90
52609;DHT22;38503;48.544;12.142;2022-12-05T01:09:07;2.50;99.90
52609;DHT22;38503;48.544;12.142;2022-12-05T01:11:36;2.50;99.90
52609;DHT22;38503;48.544;12.142;2022-12-05T01:14:12;2.50;99.90
52609;DHT22;38503;48.544;12.142;2022-12-05T01:16:41;2.60;99.90
52609;DHT22;38503;48.544;12.142;2022-12-05T01:19:20;2.50;99.90
52609;DHT22;38503;48.544;12.142;2022-12-05T01:21:47;2.50;99.90
52609;DHT22;38503;48.544;12.142;2022-12-05T01:24:15;2.50;99.90
52609;DHT22;38503;48.544;12.142;2022-12-05T01:26:43;2.50;99.90
52609;DHT22;38503;48.544;12.142;2022-12-05T01:29:12;2.50;99.90
52609;DHT22;38503;48.544;12.142;2022-12-05T01:31:39;2.60;99.90
52609;DHT22;38503;48.544;12.142;2022-12-05T01:34:09;2.50;99.90
52609;DHT22;38503;48.544;12.142;2022-12-05T01:36:36;2.40;99.90
52609;DHT22;38503;48.544;12.142;2022-12-05T01:39:05;2.40;99.90
52609;DHT22;38503;48.544;12.142;2022-12-05T01:41:39;2.40;99.90
52609;DHT22;38503;48.544;12.142;2022-12-05T01:46:54;2.40;99.90
52609;DHT22;38503;48.544;12.142;2022-12-05T01:49:34;2.40;99.90
52609;DHT22;38503;48.544;12.142;2022-12-05T01:52:24;2.40;99.90
52609;DHT22;38503;48.544;12.142;2022-12-05T01:54:55;2.40;99.90
52609;DHT22;38503;48.544;12.142;2022-12-05T01:57:22;2.40;99.90
52609;DHT22;38503;48.544;12.142;2022-12-05T01:59:56;2.40;99.90
52609;DHT22;38503;48.544;12.142;2022-12-05T02:02:26;2.30;99.90
52609;DHT22;38503;48.544;12.142;2022-12-05T02:05:04;2.30;99.90
52609;DHT22;38503;48.544;12.142;2022-12-05T02:07:31;2.30;99.90
52609;DHT22;38503;48.544;12.142;2022-12-05T02:09:59;2.20;99.90
52609;DHT22;38503;48.544;12.142;2022-12-05T02:12:26;2.30;99.90
52609;DHT22;38503;48.544;12.142;2022-12-05T02:17:52;2.30;99.90
52609;DHT22;38503;48.544;12.142;2022-12-05T02:28:49;2.30;99.90
52609;DHT22;38503;48.544;12.142;2022-12-05T02:34:23;2.20;99.90
52609;DHT22;38503;48.544;12.142;2022-12-05T02:37:16;2.20;99.90
52609;DHT22;38503;48.544;12.142;2022-12-05T02:40:14;2.20;99.90
52609;DHT22;38503;48.544;12.142;2022-12-05T02:42:54;2.00;99.90
52609;DHT22;38503;48.544;12.142;2022-12-05T02:45:24;2.10;99.90
52609;DHT22;38503;48.544;12.142;2022-12-05T02:47:53;2.20;99.90
52609;DHT22;38503;48.544;12.142;2022-12-05T02:50:28;2.10;99.90
52609;DHT22;38503;48.544;12.142;2022-12-05T02:53:00;2.10;99.90
52609;DHT22;38503;48.544;12.142;2022-12-05T02:55:29;2.10;99.90
52609;DHT22;38503;48.544;12.142;2022-12-05T02:58:02;2.20;99.90
52609;DHT22;38503;48.544;12.142;2022-12-05T03:00:30;2.10;99.90
52609;DHT22;38503;48.544;12.142;2022-12-05T03:02:58;2.10;99.90
52609;DHT22;38503;48.544;12.142;2022-12-05T03:08:09;2.10;99.90
52609;DHT22;38503;48.544;12.142;2022-12-05T03:10:40;2.00;99.90
52609;DHT22;38503;48.544;12.142;2022-12-05T03:13:15;2.10;99.90
52609;DHT22;38503;48.544;12.142;2022-12-05T03:15:47;2.00;99.90
52609;DHT22;38503;48.544;12.142;2022-12-05T03:18:25;2.00;99.90
52609;DHT22;38503;48.544;12.142;2022-12-05T03:21:03;2.00;99.90
52609;DHT22;38503;48.544;12.142;2022-12-05T03:23:40;2.00;99.90
52609;DHT22;38503;48.544;12.142;2022-12-05T03:26:37;2.00;99.90
52609;DHT22;38503;48.544;12.142;2022-12-05T03:29:21;1.90;99.90
52609;DHT22;38503;48.544;12.142;2022-12-05T03:35:01;2.00;99.90
52609;DHT22;38503;48.544;12.142;2022-12-05T03:40:31;1.90;99.90
52609;DHT22;38503;48.544;12.142;2022-12-05T03:43:17;1.90;99.90
52609;DHT22;38503;48.544;12.142;2022-12-05T03:45:58;1.90;99.90
52609;DHT22;38503;48.544;12.142;2022-12-05T03:51:34;1.90;99.90
52609;DHT22;38503;48.544;12.142;2022-12-05T03:54:17;1.90;99.90
52609;DHT22;38503;48.544;12.142;2022-12-05T03:57:03;1.90;99.90
52609;DHT22;38503;48.544;12.142;2022-12-05T03:59:34;2.00;99.90
52609;DHT22;38503;48.544;12.142;2022-12-05T04:02:37;2.00;99.90
52609;DHT22;38503;48.544;12.142;2022-12-05T04:05:58;1.90;99.90
52609;DHT22;38503;48.544;12.142;2022-12-05T04:08:24;2.00;99.90
52609;DHT22;38503;48.544;12.142;2022-12-05T04:10:54;1.80;99.90
52609;DHT22;38503;48.544;12.142;2022-12-05T04:16:16;1.70;99.90
52609;DHT22;38503;48.544;12.142;2022-12-05T04:19:12;1.70;99.90
52609;DHT22;38503;48.544;12.142;2022-12-05T04:21:43;1.70;99.90
52609;DHT22;38503;48.544;12.142;2022-12-05T04:24:37;1.70;99.90
52609;DHT22;38503;48.544;12.142;2022-12-05T04:30:19;1.70;99.90
52609;DHT22;38503;48.544;12.142;2022-12-05T04:38:54;1.70;99.90
52609;DHT22;38503;48.544;12.142;2022-12-05T04:41:30;1.70;99.90
52609;DHT22;38503;48.544;12.142;2022-12-05T04:44:02;1.70;99.90
52609;DHT22;38503;48.544;12.142;2022-12-05T04:46:30;1.80;99.90
52609;DHT22;38503;48.544;12.142;2022-12-05T04:48:59;1.80;99.90
52609;DHT22;38503;48.544;12.142;2022-12-05T04:51:31;1.80;99.90
52609;DHT22;38503;48.544;12.142;2022-12-05T04:54:22;1.70;99.90
52609;DHT22;38503;48.544;12.142;2022-12-05T04:56:54;1.70;99.90
52609;DHT22;38503;48.544;12.142;2022-12-05T04:59:27;1.70;99.90
52609;DHT22;38503;48.544;12.142;2022-12-05T05:01:58;1.70;99.90
52609;DHT22;38503;48.544;12.142;2022-12-05T05:04:38;1.70;99.90
52609;DHT22;38503;48.544;12.142;2022-12-05T05:07:08;1.60;99.90
52609;DHT22;38503;48.544;12.142;2022-12-05T05:09:35;1.60;99.90
52609;DHT22;38503;48.544;12.142;2022-12-05T05:12:03;1.60;99.90
52609;DHT22;38503;48.544;12.142;2022-12-05T05:14:30;1.60;99.90
52609;DHT22;38503;48.544;12.142;2022-12-05T05:16:57;1.60;99.90
52609;DHT22;38503;48.544;12.142;2022-12-05T05:19:24;1.60;99.90
52609;DHT22;38503;48.544;12.142;2022-12-05T05:21:51;1.60;99.90
52609;DHT22;38503;48.544;12.142;2022-12-05T05:24:19;1.60;99.90
52609;DHT22;38503;48.544;12.142;2022-12-05T05:26:47;1.70;99.90
52609;DHT22;38503;48.544;12.142;2022-12-05T05:29:22;1.70;99.90
52609;DHT22;38503;48.544;12.142;2022-12-05T05:31:49;1.70;99.90
52609;DHT22;38503;48.544;12.142;2022-12-05T05:34:16;1.60;99.90
52609;DHT22;38503;48.544;12.142;2022-12-05T05:36:43;1.70;99.90
52609;DHT22;38503;48.544;12.142;2022-12-05T05:39:12;1.70;99.90
52609;DHT22;38503;48.544;12.142;2022-12-05T05:41:41;1.70;99.90
52609;DHT22;38503;48.544;12.142;2022-12-05T05:44:08;1.70;99.90
52609;DHT22;38503;48.544;12.142;2022-12-05T05:46:35;1.70;99.90
52609;DHT22;38503;48.544;12.142;2022-12-05T05:49:02;1.80;99.90
52609;DHT22;38503;48.544;12.142;2022-12-05T05:51:29;1.70;99.90
52609;DHT22;38503;48.544;12.142;2022-12-05T05:53:57;1.80;99.90
52609;DHT22;38503;48.544;12.142;2022-12-05T05:56:24;1.70;99.90
52609;DHT22;38503;48.544;12.142;2022-12-05T05:59:03;1.70;99.90
52609;DHT22;38503;48.544;12.142;2022-12-05T06:01:30;1.70;99.90
52609;DHT22;38503;48.544;12.142;2022-12-05T06:03:57;1.70;99.90
52609;DHT22;38503;48.544;12.142;2022-12-05T06:06:24;1.70;99.90
52609;DHT22;38503;48.544;12.142;2022-12-05T06:08:51;1.70;99.90
52609;DHT22;38503;48.544;12.142;2022-12-05T06:11:24;1.80;99.90
52609;DHT22;38503;48.544;12.142;2022-12-05T06:13:54;1.80;99.90
52609;DHT22;38503;48.544;12.142;2022-12-05T06:16:21;1.90;99.90
52609;DHT22;38503;48.544;12.142;2022-12-05T06:18:48;1.90;99.90
52609;DHT22;38503;48.544;12.142;2022-12-05T06:21:16;1.90;99.90
52609;DHT22;38503;48.544;12.142;2022-12-05T06:23:43;1.90;99.90
52609;DHT22;38503;48.544;12.142;2022-12-05T06:26:12;1.90;99.90
52609;DHT22;38503;48.544;12.142;2022-12-05T06:28:39;1.90;99.90
52609;DHT22;38503;48.544;12.142;2022-12-05T06:31:12;1.90;99.90
52609;DHT22;38503;48.544;12.142;2022-12-05T06:33:39;1.90;99.90
52609;DHT22;38503;48.544;12.142;2022-12-05T06:36:18;1.80;99.90
52609;DHT22;38503;48.544;12.142;2022-12-05T06:38:48;1.80;99.90
52609;DHT22;38503;48.544;12.142;2022-12-05T06:41:23;1.80;99.90
52609;DHT22;38503;48.544;12.142;2022-12-05T06:43:54;1.70;99.90
52609;DHT22;38503;48.544;12.142;2022-12-05T06:46:27;1.80;99.90
52609;DHT22;38503;48.544;12.142;2022-12-05T06:48:56;1.80;99.90
52609;DHT22;38503;48.544;12.142;2022-12-05T06:51:29;1.70;99.90
52609;DHT22;38503;48.544;12.142;2022-12-05T06:53:56;1.70;99.90
52609;DHT22;38503;48.544;12.142;2022-12-05T06:56:23;1.80;99.90
52609;DHT22;38503;48.544;12.142;2022-12-05T06:58:52;1.80;99.90
52609;DHT22;38503;48.544;12.142;2022-12-05T07:03:50;1.80;99.90
52609;DHT22;38503;48.544;12.142;2022-12-05T07:06:17;1.80;99.90
52609;DHT22;38503;48.544;12.142;2022-12-05T07:08:44;1.80;99.90
52609;DHT22;38503;48.544;12.142;2022-12-05T07:11:11;1.90;99.90
52609;DHT22;38503;48.544;12.142;2022-12-05T07:13:38;1.80;99.90
52609;DHT22;38503;48.544;12.142;2022-12-05T07:16:05;1.90;99.90
52609;DHT22;38503;48.544;12.142;2022-12-05T07:18:33;1.90;99.90
52609;DHT22;38503;48.544;12.142;2022-12-05T07:21:07;1.90;99.90
52609;DHT22;38503;48.544;12.142;2022-12-05T07:23:40;2.00;99.90
52609;DHT22;38503;48.544;12.142;2022-12-05T07:26:08;1.90;99.90
52609;DHT22;38503;48.544;12.142;2022-12-05T07:28:35;2.00;99.90
52609;DHT22;38503;48.544;12.142;2022-12-05T07:31:15;2.00;99.90
52609;DHT22;38503;48.544;12.142;2022-12-05T07:33:43;1.90;99.90
52609;DHT22;38503;48.544;12.142;2022-12-05T07:36:12;2.00;99.90
52609;DHT22;38503;48.544;12.142;2022-12-05T07:38:40;2.00;99.90
52609;DHT22;38503;48.544;12.142;2022-12-05T07:41:10;2.00;99.90
52609;DHT22;38503;48.544;12.142;2022-12-05T07:43:40;2.00;99.90
52609;DHT22;38503;48.544;12.142;2022-12-05T07:46:09;2.00;99.90
52609;DHT22;38503;48.544;12.142;2022-12-05T07:48:38;2.10;99.90
52609;DHT22;38503;48.544;12.142;2022-12-05T07:51:06;2.10;99.90
52609;DHT22;38503;48.544;12.142;2022-12-05T07:53:34;2.10;99.90
52609;DHT22;38503;48.544;12.142;2022-12-05T07:56:04;2.10;99.90
52609;DHT22;38503;48.544;12.142;2022-12-05T07:58:32;2.20;99.90
52609;DHT22;38503;48.544;12.142;2022-12-05T08:01:08;2.20;99.90
52609;DHT22;38503;48.544;12.142;2022-12-05T08:03:35;2.10;99.90
52609;DHT22;38503;48.544;12.142;2022-12-05T08:06:05;2.20;99.90
52609;DHT22;38503;48.544;12.142;2022-12-05T08:08:32;2.20;99.90
52609;DHT22;38503;48.544;12.142;2022-12-05T08:11:04;2.30;99.90
52609;DHT22;38503;48.544;12.142;2022-12-05T08:13:32;2.30;99.90
52609;DHT22;38503;48.544;12.142;2022-12-05T08:16:01;2.40;99.90
52609;DHT22;38503;48.544;12.142;2022-12-05T08:18:28;2.50;99.90
52609;DHT22;38503;48.544;12.142;2022-12-05T08:20:59;2.50;99.90
52609;DHT22;38503;48.544;12.142;2022-12-05T08:23:28;2.50;99.90
52609;DHT22;38503;48.544;12.142;2022-12-05T08:25:59;2.50;99.90
52609;DHT22;38503;48.544;12.142;2022-12-05T08:28:26;2.50;99.90
52609;DHT22;38503;48.544;12.142;2022-12-05T08:30:53;2.50;99.90
52609;DHT22;38503;48.544;12.142;2022-12-05T08:33:20;2.60;99.90
52609;DHT22;38503;48.544;12.142;2022-12-05T08:35:47;2.60;99.90
52609;DHT22;38503;48.544;12.142;2022-12-05T08:38:14;2.60;99.90
52609;DHT22;38503;48.544;12.142;2022-12-05T08:40:40;2.60;99.90
52609;DHT22;38503;48.544;12.142;2022-12-05T08:43:07;2.60;99.90
52609;DHT22;38503;48.544;12.142;2022-12-05T08:45:34;2.70;99.90
52609;DHT22;38503;48.544;12.142;2022-12-05T08:48:04;2.50;99.90
52609;DHT22;38503;48.544;12.142;2022-12-05T08:50:31;2.60;99.90
52609;DHT22;38503;48.544;12.142;2022-12-05T08:52:57;2.60;99.90
52609;DHT22;38503;48.544;12.142;2022-12-05T08:55:24;2.60;99.90
52609;DHT22;38503;48.544;12.142;2022-12-05T08:57:51;2.70;99.90
52609;DHT22;38503;48.544;12.142;2022-12-05T09:00:18;2.70;99.90
52609;DHT22;38503;48.544;12.142;2022-12-05T09:02:49;2.80;99.90
52609;DHT22;38503;48.544;12.142;2022-12-05T09:05:17;2.80;99.90
52609;DHT22;38503;48.544;12.142;2022-12-05T09:07:54;3.00;99.90
52609;DHT22;38503;48.544;12.142;2022-12-05T09:10:21;3.00;99.90
52609;DHT22;38503;48.544;12.142;2022-12-05T09:12:48;3.00;99.90
52609;DHT22;38503;48.544;12.142;2022-12-05T09:15:17;3.00;99.90
52609;DHT22;38503;48.544;12.142;2022-12-05T09:17:44;3.00;99.90
52609;DHT22;38503;48.544;12.142;2022-12-05T09:20:11;3.00;99.90
52609;DHT22;38503;48.544;12.142;2022-12-05T09:22:40;3.00;99.90
52609;DHT22;38503;48.544;12.142;2022-12-05T09:25:07;3.20;99.90
52609;DHT22;38503;48.544;12.142;2022-12-05T09:27:34;3.20;99.90
52609;DHT22;38503;48.544;12.142;2022-12-05T09:30:01;3.30;99.90
52609;DHT22;38503;48.544;12.142;2022-12-05T09:32:28;3.20;99.90
52609;DHT22;38503;48.544;12.142;2022-12-05T09:34:55;3.20;99.90
52609;DHT22;38503;48.544;12.142;2022-12-05T09:37:22;3.00;99.90
52609;DHT22;38503;48.544;12.142;2022-12-05T09:40:06;3.00;99.90
52609;DHT22;38503;48.544;12.142;2022-12-05T09:45:28;3.20;99.90
52609;DHT22;38503;48.544;12.142;2022-12-05T09:47:59;3.10;99.90
52609;DHT22;38503;48.544;12.142;2022-12-05T09:50:33;3.20;99.90
52609;DHT22;38503;48.544;12.142;2022-12-05T09:53:32;3.20;99.90
52609;DHT22;38503;48.544;12.142;2022-12-05T09:56:05;3.20;99.90
52609;DHT22;38503;48.544;12.142;2022-12-05T09:58:40;3.30;99.90
52609;DHT22;38503;48.544;12.142;2022-12-05T10:04:23;3.30;99.90
52609;DHT22;38503;48.544;12.142;2022-12-05T10:18:00;3.40;99.90
52609;DHT22;38503;48.544;12.142;2022-12-05T10:20:32;3.60;99.90
52609;DHT22;38503;48.544;12.142;2022-12-05T10:23:25;3.80;99.90
52609;DHT22;38503;48.544;12.142;2022-12-05T10:26:14;3.80;99.90
52609;DHT22;38503;48.544;12.142;2022-12-05T10:28:52;3.70;99.90
52609;DHT22;38503;48.544;12.142;2022-12-05T10:31:26;3.60;99.90
52609;DHT22;38503;48.544;12.142;2022-12-05T10:34:17;3.70;99.90
52609;DHT22;38503;48.544;12.142;2022-12-05T10:37:00;3.70;99.90
52609;DHT22;38503;48.544;12.142;2022-12-05T10:39:28;3.70;99.90
52609;DHT22;38503;48.544;12.142;2022-12-05T10:41:54;3.70;99.90
52609;DHT22;38503;48.544;12.142;2022-12-05T10:44:22;3.80;99.90
52609;DHT22;38503;48.544;12.142;2022-12-05T10:46:49;3.80;99.90
52609;DHT22;38503;48.544;12.142;2022-12-05T10:49:16;3.80;99.90
52609;DHT22;38503;48.544;12.142;2022-12-05T10:51:44;3.80;99.90
52609;DHT22;38503;48.544;12.142;2022-12-05T10:54:17;3.70;99.90
52609;DHT22;38503;48.544;12.142;2022-12-05T10:56:48;3.80;99.90
52609;DHT22;38503;48.544;12.142;2022-12-05T10:59:21;3.80;99.90
52609;DHT22;38503;48.544;12.142;2022-12-05T11:01:54;4.00;99.90
52609;DHT22;38503;48.544;12.142;2022-12-05T11:04:41;3.90;99.90
52609;DHT22;38503;48.544;12.142;2022-12-05T11:09:56;3.70;99.90
52609;DHT22;38503;48.544;12.142;2022-12-05T11:12:37;3.60;99.90
52609;DHT22;38503;48.544;12.142;2022-12-05T11:15:19;3.70;99.90
52609;DHT22;38503;48.544;12.142;2022-12-05T11:17:53;3.80;99.90
52609;DHT22;38503;48.544;12.142;2022-12-05T11:22:52;3.90;99.90
52609;DHT22;38503;48.544;12.142;2022-12-05T11:25:32;3.90;99.90
52609;DHT22;38503;48.544;12.142;2022-12-05T11:28:21;3.70;99.90
52609;DHT22;38503;48.544;12.142;2022-12-05T11:30:57;3.70;99.90
52609;DHT22;38503;48.544;12.142;2022-12-05T11:33:26;3.70;99.90
52609;DHT22;38503;48.544;12.142;2022-12-05T11:35:58;3.70;99.90
52609;DHT22;38503;48.544;12.142;2022-12-05T11:38:28;3.70;99.90
52609;DHT22;38503;48.544;12.142;2022-12-05T11:44:06;3.80;99.90
52609;DHT22;38503;48.544;12.142;2022-12-05T11:47:13;3.80;99.90
52609;DHT22;38503;48.544;12.142;2022-12-05T11:53:13;3.90;99.90
52609;DHT22;38503;48.544;12.142;2022-12-05T12:06:31;4.20;99.90
52609;DHT22;38503;48.544;12.142;2022-12-05T12:12:05;4.10;99.90
52609;DHT22;38503;48.544;12.142;2022-12-05T12:14:42;4.20;99.90
52609;DHT22;38503;48.544;12.142;2022-12-05T12:17:46;4.20;99.90
52609;DHT22;38503;48.544;12.142;2022-12-05T12:23:38;4.20;99.90
52609;DHT22;38503;48.544;12.142;2022-12-05T12:26:15;4.30;99.90
52609;DHT22;38503;48.544;12.142;2022-12-05T12:32:01;4.30;99.90
52609;DHT22;38503;48.544;12.142;2022-12-05T12:34:43;4.20;99.90
52609;DHT22;38503;48.544;12.142;2022-12-05T12:42:32;4.40;99.90
52609;DHT22;38503;48.544;12.142;2022-12-05T12:48:02;4.30;99.90
52609;DHT22;38503;48.544;12.142;2022-12-05T12:50:35;4.40;99.90
52609;DHT22;38503;48.544;12.142;2022-12-05T12:53:38;4.40;99.90
52609;DHT22;38503;48.544;12.142;2022-12-05T12:58:57;4.30;99.90
52609;DHT22;38503;48.544;12.142;2022-12-05T13:04:06;4.30;99.90
52609;DHT22;38503;48.544;12.142;2022-12-05T13:09:35;4.30;99.90
52609;DHT22;38503;48.544;12.142;2022-12-05T13:12:07;4.20;99.90
52609;DHT22;38503;48.544;12.142;2022-12-05T13:14:36;4.20;99.90
52609;DHT22;38503;48.544;12.142;2022-12-05T13:17:05;4.10;99.90
52609;DHT22;38503;48.544;12.142;2022-12-05T13:19:41;4.10;99.90
52609;DHT22;38503;48.544;12.142;2022-12-05T13:22:09;4.10;99.90
52609;DHT22;38503;48.544;12.142;2022-12-05T13:24:36;4.10;99.90
52609;DHT22;38503;48.544;12.142;2022-12-05T13:27:12;4.10;99.90
52609;DHT22;38503;48.544;12.142;2022-12-05T13:29:46;4.10;99.90
52609;DHT22;38503;48.544;12.142;2022-12-05T13:35:00;4.10;99.90
52609;DHT22;38503;48.544;12.142;2022-12-05T13:37:30;4.20;99.90
52609;DHT22;38503;48.544;12.142;2022-12-05T13:40:28;4.10;99.90
52609;DHT22;38503;48.544;12.142;2022-12-05T13:43:20;4.20;99.90
52609;DHT22;38503;48.544;12.142;2022-12-05T13:46:09;4.20;99.90
52609;DHT22;38503;48.544;12.142;2022-12-05T13:48:42;4.20;99.90
52609;DHT22;38503;48.544;12.142;2022-12-05T13:51:23;4.20;99.90
52609;DHT22;38503;48.544;12.142;2022-12-05T13:54:05;4.20;99.90
52609;DHT22;38503;48.544;12.142;2022-12-05T13:56:58;4.20;99.90
52609;DHT22;38503;48.544;12.142;2022-12-05T14:07:54;4.00;99.90
52609;DHT22;38503;48.544;12.142;2022-12-05T14:15:43;4.10;99.90
52609;DHT22;38503;48.544;12.142;2022-12-05T14:18:15;4.10;99.90
52609;DHT22;38503;48.544;12.142;2022-12-05T14:21:06;4.10;99.90
52609;DHT22;38503;48.544;12.142;2022-12-05T14:24:01;4.10;99.90
52609;DHT22;38503;48.544;12.142;2022-12-05T14:34:37;4.10;99.90
52609;DHT22;38503;48.544;12.142;2022-12-05T14:39:43;4.00;99.90
52609;DHT22;38503;48.544;12.142;2022-12-05T14:42:35;4.00;99.90
52609;DHT22;38503;48.544;12.142;2022-12-05T14:47:57;3.90;99.90
52609;DHT22;38503;48.544;12.142;2022-12-05T14:50:43;3.90;99.90
52609;DHT22;38503;48.544;12.142;2022-12-05T14:58:55;3.80;99.90
52609;DHT22;38503;48.544;12.142;2022-12-05T15:01:43;3.80;99.90
52609;DHT22;38503;48.544;12.142;2022-12-05T15:07:37;3.70;99.90
52609;DHT22;38503;48.544;12.142;2022-12-05T15:10:13;3.70;99.90
52609;DHT22;38503;48.544;12.142;2022-12-05T15:12:59;3.70;99.90
52609;DHT22;38503;48.544;12.142;2022-12-05T15:15:36;3.70;99.90
52609;DHT22;38503;48.544;12.142;2022-12-05T15:18:27;3.70;99.90
52609;DHT22;38503;48.544;12.142;2022-12-05T15:21:26;3.70;99.90
52609;DHT22;38503;48.544;12.142;2022-12-05T15:23:57;3.80;99.90
52609;DHT22;38503;48.544;12.142;2022-12-05T15:26:36;3.80;99.90
52609;DHT22;38503;48.544;12.142;2022-12-05T15:37:21;3.80;99.90
52609;DHT22;38503;48.544;12.142;2022-12-05T15:42:38;3.80;99.90
52609;DHT22;38503;48.544;12.142;2022-12-05T15:47:44;3.80;99.90
52609;DHT22;38503;48.544;12.142;2022-12-05T15:50:34;3.80;99.90
52609;DHT22;38503;48.544;12.142;2022-12-05T15:55:59;3.80;99.90
52609;DHT22;38503;48.544;12.142;2022-12-05T16:01:22;3.80;99.90
52609;DHT22;38503;48.544;12.142;2022-12-05T16:03:54;3.80;99.90
52609;DHT22;38503;48.544;12.142;2022-12-05T16:08:52;3.80;99.90
52609;DHT22;38503;48.544;12.142;2022-12-05T16:11:19;3.80;99.90
52609;DHT22;38503;48.544;12.142;2022-12-05T16:13:54;3.80;99.90
52609;DHT22;38503;48.544;12.142;2022-12-05T16:16:24;3.80;99.90
52609;DHT22;38503;48.544;12.142;2022-12-05T16:18:55;3.90;99.90
52609;DHT22;38503;48.544;12.142;2022-12-05T16:26:41;3.90;99.90
52609;DHT22;38503;48.544;12.142;2022-12-05T16:29:31;4.00;99.90
52609;DHT22;38503;48.544;12.142;2022-12-05T16:32:02;4.00;99.90
52609;DHT22;38503;48.544;12.142;2022-12-05T16:34:32;4.00;99.90
52609;DHT22;38503;48.544;12.142;2022-12-05T16:36:59;4.10;99.90
52609;DHT22;38503;48.544;12.142;2022-12-05T16:39:27;4.10;99.90
52609;DHT22;38503;48.544;12.142;2022-12-05T16:41:54;4.10;99.90
52609;DHT22;38503;48.544;12.142;2022-12-05T16:46:55;4.20;99.90
52609;DHT22;38503;48.544;12.142;2022-12-05T16:49:33;4.30;99.90
52609;DHT22;38503;48.544;12.142;2022-12-05T16:52:12;4.20;99.90
52609;DHT22;38503;48.544;12.142;2022-12-05T16:54:41;4.10;99.90
52609;DHT22;38503;48.544;12.142;2022-12-05T16:57:11;4.00;99.90
52609;DHT22;38503;48.544;12.142;2022-12-05T16:59:39;4.00;99.90
52609;DHT22;38503;48.544;12.142;2022-12-05T17:02:12;4.00;99.90
52609;DHT22;38503;48.544;12.142;2022-12-05T17:04:40;4.00;99.90
52609;DHT22;38503;48.544;12.142;2022-12-05T17:07:07;4.00;99.90
52609;DHT22;38503;48.544;12.142;2022-12-05T17:09:33;4.00;99.90
52609;DHT22;38503;48.544;12.142;2022-12-05T17:12:04;4.00;99.90
52609;DHT22;38503;48.544;12.142;2022-12-05T17:14:32;4.00;99.90
52609;DHT22;38503;48.544;12.142;2022-12-05T17:16:59;4.00;99.90
52609;DHT22;38503;48.544;12.142;2022-12-05T17:19:29;4.00;99.90
52609;DHT22;38503;48.544;12.142;2022-12-05T17:21:55;4.00;99.90
52609;DHT22;38503;48.544;12.142;2022-12-05T17:24:22;4.10;99.90
52609;DHT22;38503;48.544;12.142;2022-12-05T17:26:51;4.00;99.90
52609;DHT22;38503;48.544;12.142;2022-12-05T17:29:18;4.00;99.90
52609;DHT22;38503;48.544;12.142;2022-12-05T17:31:45;4.00;99.90
52609;DHT22;38503;48.544;12.142;2022-12-05T17:34:16;3.90;99.90
52609;DHT22;38503;48.544;12.142;2022-12-05T17:36:43;3.90;99.90
52609;DHT22;38503;48.544;12.142;2022-12-05T17:39:10;3.90;99.90
52609;DHT22;38503;48.544;12.142;2022-12-05T17:41:37;4.00;99.90
52609;DHT22;38503;48.544;12.142;2022-12-05T17:44:05;3.90;99.90
52609;DHT22;38503;48.544;12.142;2022-12-05T17:46:32;3.90;99.90
52609;DHT22;38503;48.544;12.142;2022-12-05T17:48:59;3.90;99.90
52609;DHT22;38503;48.544;12.142;2022-12-05T17:51:25;3.90;99.90
52609;DHT22;38503;48.544;12.142;2022-12-05T17:53:52;4.00;99.90
52609;DHT22;38503;48.544;12.142;2022-12-05T17:56:20;4.00;99.90
52609;DHT22;38503;48.544;12.142;2022-12-05T17:58:47;3.90;99.90
52609;DHT22;38503;48.544;12.142;2022-12-05T18:01:17;3.90;99.90
52609;DHT22;38503;48.544;12.142;2022-12-05T18:03:45;3.90;99.90
52609;DHT22;38503;48.544;12.142;2022-12-05T18:06:13;3.90;99.90
52609;DHT22;38503;48.544;12.142;2022-12-05T18:08:40;3.90;99.90
52609;DHT22;38503;48.544;12.142;2022-12-05T18:11:11;3.90;99.90
52609;DHT22;38503;48.544;12.142;2022-12-05T18:13:38;4.00;99.90
52609;DHT22;38503;48.544;12.142;2022-12-05T18:16:05;3.90;99.90
52609;DHT22;38503;48.544;12.142;2022-12-05T18:18:33;4.00;99.90
52609;DHT22;38503;48.544;12.142;2022-12-05T18:21:11;4.00;99.90
52609;DHT22;38503;48.544;12.142;2022-12-05T18:23:39;4.00;99.90
52609;DHT22;38503;48.544;12.142;2022-12-05T18:26:07;4.00;99.90
52609;DHT22;38503;48.544;12.142;2022-12-05T18:28:35;3.90;99.90
52609;DHT22;38503;48.544;12.142;2022-12-05T18:31:14;4.00;99.90
52609;DHT22;38503;48.544;12.142;2022-12-05T18:33:42;4.00;99.90
52609;DHT22;38503;48.544;12.142;2022-12-05T18:36:12;3.90;99.90
52609;DHT22;38503;48.544;12.142;2022-12-05T18:38:41;3.90;99.90
52609;DHT22;38503;48.544;12.142;2022-12-05T18:41:10;3.90;99.90
52609;DHT22;38503;48.544;12.142;2022-12-05T18:43:37;3.90;99.90
52609;DHT22;38503;48.544;12.142;2022-12-05T18:46:05;3.90;99.90
52609;DHT22;38503;48.544;12.142;2022-12-05T18:48:34;3.90;99.90
52609;DHT22;38503;48.544;12.142;2022-12-05T18:53:37;3.70;99.90
52609;DHT22;38503;48.544;12.142;2022-12-05T18:56:13;3.70;99.90
52609;DHT22;38503;48.544;12.142;2022-12-05T18:59:04;3.70;99.90
52609;DHT22;38503;48.544;12.142;2022-12-05T19:01:34;3.70;99.90
52609;DHT22;38503;48.544;12.142;2022-12-05T19:04:03;3.70;99.90